createdAt,value
2023-02-12T00:00:56.692Z,86.07
2023-02-12T00:03:49.476Z,85.99
2023-02-12T00:06:23.600Z,85.83
2023-02-12T00:09:08.811Z,85.37
2023-02-12T00:11:39.782Z,84.87
2023-02-12T00:14:12.680Z,84.71
2023-02-12T00:16:46.319Z,84.71
2023-02-12T00:19:19.393Z,84.29
2023-02-12T00:21:51.935Z,84.14
2023-02-12T00:24:24.538Z,83.66
2023-02-12T00:26:57.258Z,83.53
2023-02-12T00:29:30.017Z,83.59
2023-02-12T00:32:03.012Z,83.42
2023-02-12T00:34:35.674Z,83.27
2023-02-12T00:37:08.344Z,83.15
2023-02-12T00:39:41.303Z,83.31
2023-02-12T00:42:14.266Z,83.43
2023-02-12T00:44:47.451Z,83.44
2023-02-12T00:47:20.094Z,83.24
2023-02-12T00:49:52.832Z,83.06
2023-02-12T00:52:26.488Z,82.65
2023-02-12T00:55:00.807Z,82.50
2023-02-12T00:57:33.823Z,82.69
2023-02-12T01:00:07.629Z,82.93
2023-02-12T01:02:41.354Z,82.81
2023-02-12T01:05:13.943Z,82.84
2023-02-12T01:07:50.103Z,82.88
2023-02-12T01:10:23.752Z,82.72
2023-02-12T01:12:56.665Z,82.62
2023-02-12T01:15:29.164Z,82.23
2023-02-12T01:18:03.941Z,81.89
2023-02-12T01:20:36.440Z,81.86
2023-02-12T01:23:08.875Z,81.86
2023-02-12T01:25:42.902Z,81.67
2023-02-12T01:28:15.544Z,81.54
2023-02-12T01:30:50.301Z,81.54
2023-02-12T01:33:22.913Z,81.47
2023-02-12T01:35:55.609Z,81.45
2023-02-12T01:38:28.274Z,81.54
2023-02-12T01:41:07.605Z,81.35
2023-02-12T01:43:41.350Z,81.17
2023-02-12T01:46:15.926Z,81.35
2023-02-12T01:48:50.074Z,81.73
2023-02-12T01:51:25.191Z,82.12
2023-02-12T01:54:01.914Z,82.52
2023-02-12T01:56:34.975Z,82.15
2023-02-12T01:59:07.724Z,82.06
2023-02-12T02:01:40.563Z,82.17
2023-02-12T02:04:18.470Z,82.12
2023-02-12T02:06:55.535Z,82.13
2023-02-12T02:09:29.675Z,82.21
2023-02-12T02:12:20.070Z,82.17
2023-02-12T02:14:56.260Z,81.72
2023-02-12T02:17:44.532Z,81.57
2023-02-12T02:20:57.649Z,81.38
2023-02-12T02:23:52.668Z,81.24
2023-02-12T02:27:12.689Z,80.87
2023-02-12T02:30:08.835Z,80.78
2023-02-12T02:32:49.197Z,81.00
2023-02-12T02:35:29.403Z,80.96
2023-02-12T02:38:18.829Z,80.99
2023-02-12T02:40:56.956Z,80.85
2023-02-12T02:43:35.096Z,80.91
2023-02-12T02:46:11.971Z,80.97
2023-02-12T02:48:49.413Z,80.90
2023-02-12T02:51:27.157Z,80.66
2023-02-12T02:54:04.387Z,80.53
2023-02-12T02:56:39.221Z,80.50
2023-02-12T02:59:16.445Z,80.41
2023-02-12T03:01:53.533Z,80.34
2023-02-12T03:04:32.684Z,80.39
2023-02-12T03:07:10.126Z,80.50
2023-02-12T03:09:47.071Z,80.46
2023-02-12T03:12:24.747Z,80.21
2023-02-12T03:15:01.665Z,80.14
2023-02-12T03:17:39.135Z,80.18
2023-02-12T03:20:17.472Z,80.16
2023-02-12T03:22:54.246Z,80.22
2023-02-12T03:25:31.959Z,80.19
2023-02-12T03:28:08.317Z,80.21
2023-02-12T03:30:47.493Z,80.42
2023-02-12T03:33:28.857Z,80.51
2023-02-12T03:36:09.223Z,80.71
2023-02-12T03:38:45.752Z,80.59
2023-02-12T03:41:26.408Z,80.62
2023-02-12T03:44:07.439Z,80.45
2023-02-12T03:46:48.326Z,80.21
2023-02-12T03:49:25.808Z,79.98
2023-02-12T03:51:59.880Z,79.88
2023-02-12T03:54:33.501Z,79.70
2023-02-12T03:57:11.300Z,79.61
2023-02-12T03:59:44.350Z,79.36
2023-02-12T04:02:19.787Z,79.20
2023-02-12T04:04:53.793Z,79.00
2023-02-12T04:07:27.731Z,78.94
2023-02-12T04:10:00.744Z,78.78
2023-02-12T04:12:45.022Z,78.55
2023-02-12T04:15:38.902Z,78.47
2023-02-12T04:18:20.135Z,78.51
2023-02-12T04:21:01.768Z,78.40
2023-02-12T04:23:49.699Z,78.26
2023-02-12T04:26:33.621Z,78.22
2023-02-12T04:29:18.579Z,78.44
2023-02-12T04:31:56.910Z,78.36
2023-02-12T04:34:35.153Z,78.41
2023-02-12T04:37:15.079Z,78.41
2023-02-12T04:39:51.902Z,78.45
2023-02-12T04:42:24.579Z,78.66
2023-02-12T04:44:58.448Z,78.70
2023-02-12T04:47:30.989Z,78.61
2023-02-12T04:50:03.825Z,78.82
2023-02-12T04:52:36.361Z,78.87
2023-02-12T04:55:09.677Z,78.72
2023-02-12T04:57:42.134Z,78.68
2023-02-12T05:00:18.139Z,78.71
2023-02-12T05:02:50.591Z,78.47
2023-02-12T05:05:23.473Z,78.37
2023-02-12T05:07:56.320Z,78.24
2023-02-12T05:10:28.951Z,78.25
2023-02-12T05:13:01.653Z,78.26
2023-02-12T05:15:34.074Z,78.11
2023-02-12T05:18:06.810Z,78.12
2023-02-12T05:20:39.834Z,77.98
2023-02-12T05:23:12.619Z,78.15
2023-02-12T05:25:49.844Z,78.02
2023-02-12T05:28:22.377Z,77.87
2023-02-12T05:30:55.352Z,77.70
2023-02-12T05:33:27.926Z,77.77
2023-02-12T05:36:06.972Z,77.85
2023-02-12T05:38:40.552Z,78.11
2023-02-12T05:41:19.148Z,77.94
2023-02-12T05:43:52.291Z,77.87
2023-02-12T05:46:24.808Z,77.54
2023-02-12T05:49:00.384Z,77.53
2023-02-12T05:51:33.398Z,77.54
2023-02-12T05:54:08.287Z,77.75
2023-02-12T05:56:46.553Z,77.67
2023-02-12T05:59:22.841Z,77.69
2023-02-12T06:01:55.597Z,77.71
2023-02-12T06:04:29.607Z,77.77
2023-02-12T06:07:03.038Z,77.71
2023-02-12T06:09:36.195Z,77.93
2023-02-12T06:12:09.195Z,77.81
2023-02-12T06:14:43.682Z,77.61
2023-02-12T06:17:19.290Z,77.73
2023-02-12T06:19:51.887Z,77.75
2023-02-12T06:22:24.594Z,77.64
2023-02-12T06:24:57.090Z,77.94
2023-02-12T06:27:29.655Z,78.00
2023-02-12T06:30:02.434Z,77.98
2023-02-12T06:32:34.905Z,77.98
2023-02-12T06:35:09.066Z,78.05
2023-02-12T06:37:41.570Z,77.86
2023-02-12T06:40:15.044Z,77.80
2023-02-12T06:42:50.464Z,78.02
2023-02-12T06:45:23.105Z,78.06
2023-02-12T06:47:56.725Z,78.16
2023-02-12T06:50:29.866Z,78.23
2023-02-12T06:53:03.373Z,78.07
2023-02-12T06:55:37.281Z,77.99
2023-02-12T06:58:10.254Z,77.99
2023-02-12T07:00:42.953Z,77.93
2023-02-12T07:03:15.425Z,77.99
2023-02-12T07:05:48.349Z,78.08
2023-02-12T07:08:20.861Z,78.19
2023-02-12T07:10:53.674Z,78.15
2023-02-12T07:13:26.980Z,78.18
2023-02-12T07:15:59.839Z,78.17
2023-02-12T07:18:32.502Z,78.32
2023-02-12T07:21:06.246Z,78.44
2023-02-12T07:23:39.547Z,78.82
2023-02-12T07:26:14.338Z,78.89
2023-02-12T07:28:47.130Z,79.01
2023-02-12T07:31:22.408Z,78.98
2023-02-12T07:33:58.770Z,78.75
2023-02-12T07:36:33.008Z,78.56
2023-02-12T07:39:06.231Z,78.50
2023-02-12T07:41:39.009Z,78.94
2023-02-12T07:44:14.373Z,79.21
2023-02-12T07:46:49.539Z,79.35
2023-02-12T07:49:23.763Z,79.17
2023-02-12T07:51:56.944Z,79.29
2023-02-12T07:54:31.159Z,79.28
2023-02-12T07:57:03.589Z,79.18
2023-02-12T07:59:36.382Z,79.09
2023-02-12T08:02:10.752Z,78.71
2023-02-12T08:04:43.424Z,78.42
2023-02-12T08:07:15.953Z,78.23
2023-02-12T08:09:48.750Z,77.94
2023-02-12T08:12:23.781Z,78.03
2023-02-12T08:14:56.429Z,78.01
2023-02-12T08:17:28.954Z,77.94
2023-02-12T08:20:01.447Z,78.15
2023-02-12T08:22:33.783Z,78.12
2023-02-12T08:25:07.548Z,77.78
2023-02-12T08:27:42.186Z,77.62
2023-02-12T08:30:15.645Z,77.48
2023-02-12T08:32:49.977Z,77.60
2023-02-12T08:35:22.526Z,77.54
2023-02-12T08:37:55.119Z,77.65
2023-02-12T08:40:27.768Z,77.72
2023-02-12T08:43:00.145Z,77.64
2023-02-12T08:45:33.916Z,77.83
2023-02-12T08:48:07.314Z,77.89
2023-02-12T08:50:40.442Z,77.68
2023-02-12T08:53:12.853Z,77.84
2023-02-12T08:55:51.737Z,78.00
2023-02-12T08:58:24.107Z,78.04
2023-02-12T09:00:57.038Z,77.84
2023-02-12T09:03:30.121Z,77.82
2023-02-12T09:06:05.612Z,77.58
2023-02-12T09:08:38.974Z,77.67
2023-02-12T09:11:14.002Z,78.18
2023-02-12T09:13:47.543Z,78.30
2023-02-12T09:16:21.251Z,78.47
2023-02-12T09:18:53.875Z,78.60
2023-02-12T09:21:27.351Z,78.82
2023-02-12T09:24:00.364Z,78.99
2023-02-12T09:26:33.234Z,78.67
2023-02-12T09:29:07.202Z,78.64
2023-02-12T09:31:40.523Z,78.60
2023-02-12T09:34:13.018Z,79.01
2023-02-12T09:36:45.871Z,79.05
2023-02-12T09:39:18.253Z,78.99
2023-02-12T09:42:26.423Z,79.01
2023-02-12T09:45:08.644Z,78.80
2023-02-12T09:47:48.160Z,78.68
2023-02-12T09:50:38.865Z,78.85
2023-02-12T09:53:16.295Z,78.74
2023-02-12T09:55:49.322Z,78.93
2023-02-12T09:58:35.666Z,79.41
2023-02-12T10:01:15.102Z,79.89
2023-02-12T10:03:49.789Z,79.72
2023-02-12T10:06:26.733Z,80.06
2023-02-12T10:09:37.659Z,80.02
2023-02-12T10:12:18.517Z,79.74
2023-02-12T10:15:15.655Z,80.08
2023-02-12T10:17:57.572Z,79.94
2023-02-12T10:20:48.191Z,79.92
2023-02-12T10:23:38.018Z,79.90
2023-02-12T10:26:20.278Z,80.12
2023-02-12T10:28:54.293Z,80.55
2023-02-12T10:31:33.547Z,80.86
2023-02-12T10:34:16.531Z,81.06
2023-02-12T10:36:52.892Z,81.53
2023-02-12T10:41:48.947Z,81.26
2023-02-12T10:44:22.101Z,80.64
2023-02-12T10:46:55.126Z,80.38
2023-02-12T10:49:28.194Z,80.96
2023-02-12T10:52:11.133Z,81.55
2023-02-12T10:54:46.121Z,81.73
2023-02-12T10:57:22.758Z,81.42
2023-02-12T10:59:57.592Z,80.96
2023-02-12T11:02:31.877Z,80.62
2023-02-12T11:05:26.308Z,81.46
2023-02-12T11:07:59.120Z,81.69
2023-02-12T11:10:37.688Z,81.43
2023-02-12T11:13:26.735Z,80.67
2023-02-12T11:16:01.304Z,80.64
2023-02-12T11:18:33.932Z,80.44
2023-02-12T11:21:08.924Z,80.79
2023-02-12T11:23:43.539Z,80.86
2023-02-12T11:26:30.036Z,80.68
2023-02-12T11:29:05.681Z,80.65
2023-02-12T11:31:41.849Z,80.00
2023-02-12T11:34:19.837Z,80.20
2023-02-12T11:36:54.484Z,79.67
2023-02-12T11:39:32.457Z,79.09
2023-02-12T11:42:14.937Z,79.11
2023-02-12T11:44:53.100Z,79.08
2023-02-12T11:47:29.117Z,78.93
2023-02-12T11:50:05.448Z,79.03
2023-02-12T11:52:42.030Z,78.86
2023-02-12T11:55:25.474Z,78.93
2023-02-12T11:58:07.015Z,79.06
2023-02-12T12:00:46.456Z,79.23
2023-02-12T12:03:24.727Z,79.51
2023-02-12T12:06:02.720Z,79.67
2023-02-12T12:08:41.978Z,79.37
2023-02-12T12:11:19.323Z,79.20
2023-02-12T12:13:59.123Z,79.16
2023-02-12T12:16:55.212Z,79.05
2023-02-12T12:19:50.483Z,79.27
2023-02-12T12:22:28.245Z,79.25
2023-02-12T12:25:08.921Z,79.38
2023-02-12T12:28:08.376Z,79.17
2023-02-12T12:30:55.217Z,79.04
2023-02-12T12:33:38.793Z,78.95
2023-02-12T12:36:33.931Z,79.26
2023-02-12T12:39:18.660Z,79.01
2023-02-12T12:42:04.556Z,79.20
2023-02-12T12:44:53.132Z,79.69
2023-02-12T12:47:33.477Z,80.19
2023-02-12T12:50:28.320Z,80.51
2023-02-12T12:53:28.419Z,79.95
2023-02-12T12:56:30.299Z,79.76
2023-02-12T12:59:25.624Z,79.90
2023-02-12T13:02:20.293Z,80.32
2023-02-12T13:05:29.729Z,80.38
2023-02-12T13:08:10.981Z,80.41
2023-02-12T13:10:50.862Z,80.06
2023-02-12T13:13:32.482Z,80.70
2023-02-12T13:16:12.793Z,81.00
2023-02-12T13:18:57.611Z,81.04
2023-02-12T13:21:41.967Z,80.84
2023-02-12T13:24:25.780Z,81.16
2023-02-12T13:27:01.964Z,81.36
2023-02-12T13:29:40.011Z,81.45
2023-02-12T13:32:18.145Z,81.25
2023-02-12T13:34:52.130Z,81.15
2023-02-12T13:37:35.491Z,81.05
2023-02-12T13:40:15.385Z,81.02
2023-02-12T13:42:54.499Z,80.76
2023-02-12T13:45:45.848Z,80.76
2023-02-12T13:48:41.863Z,80.72
2023-02-12T13:51:23.683Z,80.76
2023-02-12T13:54:09.610Z,80.72
2023-02-12T13:56:45.231Z,80.80
2023-02-12T13:59:49.044Z,81.08
2023-02-12T14:02:46.089Z,81.07
2023-02-12T14:05:36.598Z,80.81
2023-02-12T14:08:25.872Z,80.92
2023-02-12T14:11:10.682Z,80.85
2023-02-12T14:13:55.398Z,81.08
2023-02-12T14:16:44.916Z,80.75
2023-02-12T14:20:03.355Z,80.19
2023-02-12T14:23:27.051Z,79.54
2023-02-12T14:26:06.107Z,80.42
2023-02-12T14:28:50.428Z,80.34
2023-02-12T14:31:37.299Z,80.30
2023-02-12T14:34:40.756Z,80.02
2023-02-12T14:37:32.139Z,78.79
2023-02-12T14:40:48.389Z,77.91
2023-02-12T14:43:58.920Z,77.19
2023-02-12T14:46:51.997Z,77.46
2023-02-12T14:49:28.913Z,77.87
2023-02-12T14:52:05.248Z,77.57
2023-02-12T14:54:44.434Z,77.66
2023-02-12T14:57:27.383Z,77.56
2023-02-12T15:00:04.590Z,77.76
2023-02-12T15:02:40.940Z,77.63
2023-02-12T15:05:21.713Z,77.68
2023-02-12T15:07:58.424Z,77.24
2023-02-12T15:10:35.542Z,77.44
2023-02-12T15:13:25.420Z,77.75
2023-02-12T15:16:02.984Z,77.59
2023-02-12T15:18:50.939Z,77.43
2023-02-12T15:21:26.778Z,77.64
2023-02-12T15:24:06.438Z,78.17
2023-02-12T15:26:41.968Z,78.70
2023-02-12T15:29:29.416Z,78.47
2023-02-12T15:32:05.951Z,78.43
2023-02-12T15:34:41.944Z,78.99
2023-02-12T15:37:24.242Z,78.76
2023-02-12T15:40:00.624Z,78.59
2023-02-12T15:42:35.887Z,78.41
2023-02-12T15:45:24.141Z,78.84
2023-02-12T15:48:15.062Z,78.92
2023-02-12T15:50:56.324Z,78.97
2023-02-12T15:53:31.579Z,78.62
2023-02-12T15:56:06.064Z,78.52
2023-02-12T15:58:44.629Z,78.67
2023-02-12T16:01:19.960Z,79.04
2023-02-12T16:03:55.117Z,79.04
2023-02-12T16:06:30.090Z,79.01
2023-02-12T16:09:07.816Z,78.92
2023-02-12T16:11:44.418Z,78.85
2023-02-12T16:14:24.128Z,78.52
2023-02-12T16:16:59.999Z,78.50
2023-02-12T16:19:33.931Z,78.42
2023-02-12T16:22:15.398Z,78.24
2023-02-12T16:24:51.540Z,77.98
2023-02-12T16:27:26.905Z,78.08
2023-02-12T16:30:01.878Z,78.40
2023-02-12T16:32:39.015Z,78.18
2023-02-12T16:35:28.213Z,77.97
2023-02-12T16:38:42.053Z,77.97
2023-02-12T16:41:35.310Z,78.04
2023-02-12T16:44:34.268Z,77.79
2023-02-12T16:47:07.087Z,77.88
2023-02-12T16:49:39.681Z,77.92
2023-02-12T16:52:36.047Z,77.72
2023-02-12T16:55:12.926Z,77.41
2023-02-12T16:57:45.713Z,77.12
2023-02-12T17:00:21.873Z,76.75
2023-02-12T17:02:57.215Z,76.66
2023-02-12T17:05:29.931Z,76.42
2023-02-12T17:08:02.619Z,76.41
2023-02-12T17:10:35.081Z,76.60
2023-02-12T17:13:09.104Z,76.95
2023-02-12T17:15:46.779Z,77.18
2023-02-12T17:18:19.877Z,77.15
2023-02-12T17:20:56.128Z,77.13
2023-02-12T17:23:29.789Z,77.21
2023-02-12T17:26:02.270Z,77.62
2023-02-12T17:28:35.288Z,77.58
2023-02-12T17:31:08.164Z,78.00
2023-02-12T17:33:42.492Z,78.17
2023-02-12T17:36:15.594Z,78.34
2023-02-12T17:38:48.258Z,78.11
2023-02-12T17:41:20.857Z,78.23
2023-02-12T17:43:53.673Z,78.13
2023-02-12T17:46:30.306Z,77.99
2023-02-12T17:49:03.201Z,78.26
2023-02-12T17:51:35.704Z,78.24
2023-02-12T17:54:08.535Z,79.22
2023-02-12T17:56:41.029Z,79.05
2023-02-12T17:59:14.414Z,78.60
2023-02-12T18:01:47.189Z,78.46
2023-02-12T18:04:20.056Z,78.72
2023-02-12T18:06:52.516Z,79.35
2023-02-12T18:09:25.146Z,79.74
2023-02-12T18:12:00.152Z,79.75
2023-02-12T18:14:33.823Z,80.33
2023-02-12T18:17:06.388Z,80.79
2023-02-12T18:19:39.403Z,80.46
2023-02-12T18:22:11.905Z,80.42
2023-02-12T18:24:45.456Z,80.98
2023-02-12T18:27:19.632Z,81.11
2023-02-12T18:29:52.149Z,81.21
2023-02-12T18:32:24.705Z,81.52
2023-02-12T18:34:58.315Z,82.20
2023-02-12T18:37:31.024Z,82.84
2023-02-12T18:40:04.433Z,83.80
2023-02-12T18:42:36.902Z,83.88
2023-02-12T18:45:11.096Z,83.68
2023-02-12T18:47:43.735Z,83.45
2023-02-12T18:50:16.617Z,84.14
2023-02-12T18:52:49.062Z,83.81
2023-02-12T18:55:21.877Z,83.92
2023-02-12T18:57:54.410Z,84.74
2023-02-12T19:00:27.734Z,84.60
2023-02-12T19:03:00.673Z,83.80
2023-02-12T19:05:34.184Z,84.38
2023-02-12T19:08:07.358Z,84.83
2023-02-12T19:10:43.250Z,84.77
2023-02-12T19:13:15.666Z,84.94
2023-02-12T19:15:48.428Z,85.34
2023-02-12T19:18:21.007Z,85.24
2023-02-12T19:20:53.668Z,85.29
2023-02-12T19:23:26.514Z,85.27
2023-02-12T19:26:03.415Z,85.11
2023-02-12T19:28:38.561Z,84.92
2023-02-12T19:31:15.990Z,84.37
2023-02-12T19:33:49.670Z,84.28
2023-02-12T19:36:22.823Z,84.53
2023-02-12T19:38:55.767Z,84.47
2023-02-12T19:41:30.705Z,84.44
2023-02-12T19:44:04.095Z,83.97
2023-02-12T19:46:38.946Z,84.19
2023-02-12T19:49:13.506Z,84.83
2023-02-12T19:51:47.026Z,84.62
2023-02-12T19:54:20.813Z,85.01
2023-02-12T19:56:55.516Z,85.17
2023-02-12T19:59:29.027Z,84.83
2023-02-12T20:02:02.598Z,84.58
2023-02-12T20:04:35.146Z,84.87
2023-02-12T20:07:08.434Z,84.68
2023-02-12T20:09:41.359Z,84.56
2023-02-12T20:12:13.894Z,84.65
2023-02-12T20:14:46.550Z,84.63
2023-02-12T20:17:20.359Z,84.73
2023-02-12T20:19:52.804Z,84.92
2023-02-12T20:22:25.587Z,85.14
2023-02-12T20:24:59.357Z,84.84
2023-02-12T20:27:31.974Z,84.86
2023-02-12T20:30:04.788Z,85.30
2023-02-12T20:32:37.989Z,85.83
2023-02-12T20:35:12.792Z,85.67
2023-02-12T20:37:47.187Z,85.03
2023-02-12T20:40:18.672Z,84.64
2023-02-12T20:42:51.817Z,84.71
2023-02-12T20:45:24.984Z,84.77
2023-02-12T20:47:58.135Z,84.94
2023-02-12T20:50:30.901Z,85.07
2023-02-12T20:53:03.718Z,84.82
2023-02-12T20:55:36.916Z,84.25
2023-02-12T20:58:09.596Z,84.33
2023-02-12T21:00:42.686Z,83.97
2023-02-12T21:03:15.323Z,84.27
2023-02-12T21:05:47.938Z,84.72
2023-02-12T21:08:20.725Z,85.39
2023-02-12T21:11:01.252Z,84.96
2023-02-12T21:13:34.086Z,84.36
2023-02-12T21:16:12.326Z,83.91
2023-02-12T21:18:45.541Z,83.66
2023-02-12T21:21:20.499Z,83.96
2023-02-12T21:23:55.873Z,84.32
2023-02-12T21:26:30.613Z,84.38
2023-02-12T21:29:04.645Z,84.32
2023-02-12T21:31:40.098Z,84.56
2023-02-12T21:34:16.800Z,84.39
2023-02-12T21:36:50.352Z,84.23
2023-02-12T21:39:26.593Z,83.87
2023-02-12T21:42:02.409Z,83.54
2023-02-12T21:44:36.298Z,83.37
2023-02-12T21:47:09.158Z,83.27
2023-02-12T21:49:41.905Z,82.67
2023-02-12T21:52:14.453Z,82.03
2023-02-12T21:54:47.682Z,81.96
2023-02-12T21:57:21.909Z,81.88
2023-02-12T21:59:54.694Z,81.84
2023-02-12T22:02:27.365Z,81.82
2023-02-12T22:05:00.245Z,81.78
2023-02-12T22:07:33.029Z,81.48
2023-02-12T22:10:08.351Z,81.70
2023-02-12T22:12:40.958Z,81.25
2023-02-12T22:15:14.188Z,81.19
2023-02-12T22:17:46.678Z,81.43
2023-02-12T22:20:19.552Z,82.03
2023-02-12T22:22:52.208Z,82.39
2023-02-12T22:25:25.216Z,82.23
2023-02-12T22:27:58.833Z,81.89
2023-02-12T22:30:32.889Z,81.39
2023-02-12T22:33:05.417Z,81.75
2023-02-12T22:35:38.632Z,81.68
2023-02-12T22:38:11.861Z,81.82
2023-02-12T22:40:44.567Z,81.64
2023-02-12T22:43:17.214Z,81.13
2023-02-12T22:45:49.826Z,80.31
2023-02-12T22:48:22.860Z,79.91
2023-02-12T22:50:56.189Z,80.09
2023-02-12T22:53:29.353Z,80.27
2023-02-12T22:56:05.487Z,79.96
2023-02-12T22:58:39.198Z,79.68
2023-02-12T23:01:14.223Z,79.79
2023-02-12T23:03:47.244Z,80.10
2023-02-12T23:06:21.185Z,79.72
2023-02-12T23:08:54.739Z,78.86
2023-02-12T23:11:30.996Z,78.95
2023-02-12T23:14:03.888Z,79.06
2023-02-12T23:16:36.930Z,78.41
2023-02-12T23:19:12.245Z,78.46
2023-02-12T23:21:45.626Z,78.66
2023-02-12T23:24:19.310Z,78.65
2023-02-12T23:26:51.993Z,78.48
2023-02-12T23:29:26.166Z,78.58
2023-02-12T23:31:58.841Z,78.51
2023-02-12T23:34:32.159Z,78.70
2023-02-12T23:37:05.074Z,78.57
2023-02-12T23:39:39.224Z,78.66
2023-02-12T23:42:11.817Z,78.78
2023-02-12T23:44:44.657Z,78.64
2023-02-12T23:47:17.374Z,78.38
2023-02-12T23:49:52.123Z,78.23
2023-02-12T23:52:29.315Z,78.17
2023-02-12T23:55:03.091Z,78.25
2023-02-12T23:57:36.189Z,78.29
